createdAt,value
2023-03-01T00:01:06.058Z,-5.66
2023-03-01T00:03:33.374Z,-5.67
2023-03-01T00:05:59.950Z,-5.72
2023-03-01T00:08:27.242Z,-5.77
2023-03-01T00:11:23.077Z,-5.72
2023-03-01T00:13:52.062Z,-5.67
2023-03-01T00:16:26.443Z,-5.52
2023-03-01T00:18:58.395Z,-5.72
2023-03-01T00:21:25.861Z,-5.80
2023-03-01T00:23:54.470Z,-5.79
2023-03-01T00:26:22.593Z,-5.76
2023-03-01T00:28:49.550Z,-5.87
2023-03-01T00:31:19.194Z,-5.86
2023-03-01T00:33:46.103Z,-5.94
2023-03-01T00:36:15.350Z,-5.90
2023-03-01T00:38:44.452Z,-5.95
2023-03-01T00:41:14.189Z,-6.05
2023-03-01T00:43:41.251Z,-5.92
2023-03-01T00:46:12.058Z,-5.94
2023-03-01T00:48:38.584Z,-5.80
2023-03-01T00:51:29.239Z,-5.88
2023-03-01T00:53:59.441Z,-6.08
2023-03-01T00:56:26.289Z,-6.01
2023-03-01T00:58:52.781Z,-6.02
2023-03-01T01:01:22.645Z,-5.36
2023-03-01T01:03:57.948Z,-5.67
2023-03-01T01:06:25.802Z,-5.78
2023-03-01T01:08:53.941Z,-5.80
2023-03-01T01:11:21.463Z,-5.97
2023-03-01T01:13:49.134Z,-6.10
2023-03-01T01:16:17.145Z,-6.36
2023-03-01T01:18:44.098Z,-6.55
2023-03-01T01:21:13.332Z,-6.54
2023-03-01T01:23:41.560Z,-6.55
2023-03-01T01:26:11.100Z,-6.47
2023-03-01T01:28:37.832Z,-6.41
2023-03-01T01:31:05.644Z,-6.41
2023-03-01T01:33:32.561Z,-6.57
2023-03-01T01:35:59.081Z,-6.55
2023-03-01T01:38:25.966Z,-6.65
2023-03-01T01:40:52.471Z,-6.57
2023-03-01T01:43:26.026Z,-6.41
2023-03-01T01:45:57.894Z,-6.46
2023-03-01T01:48:41.461Z,-6.53
2023-03-01T01:51:12.487Z,-6.48
2023-03-01T01:53:40.921Z,-6.42
2023-03-01T01:56:12.121Z,-6.46
2023-03-01T01:58:41.613Z,-6.55
2023-03-01T02:01:08.466Z,-6.47
2023-03-01T02:03:38.495Z,-6.45
2023-03-01T02:06:12.450Z,-6.34
2023-03-01T02:08:42.251Z,-6.36
2023-03-01T02:11:10.660Z,-6.51
2023-03-01T02:13:37.661Z,-6.47
2023-03-01T02:16:09.279Z,-6.42
2023-03-01T02:18:35.763Z,-6.58
2023-03-01T02:21:39.937Z,-6.49
2023-03-01T02:24:29.861Z,-6.64
2023-03-01T02:26:58.068Z,-6.59
2023-03-01T02:29:25.303Z,-6.56
2023-03-01T02:31:57.532Z,-6.67
2023-03-01T02:34:27.895Z,-6.61
2023-03-01T02:36:58.369Z,-6.61
2023-03-01T02:39:30.034Z,-6.73
2023-03-01T02:41:58.650Z,-6.69
2023-03-01T02:44:25.677Z,-6.64
2023-03-01T02:46:55.240Z,-6.73
2023-03-01T02:49:31.619Z,-6.73
2023-03-01T02:52:07.396Z,-6.51
2023-03-01T02:54:39.926Z,-6.49
2023-03-01T02:57:06.778Z,-6.46
2023-03-01T02:59:40.174Z,-6.36
2023-03-01T03:02:37.028Z,-6.17
2023-03-01T03:05:18.819Z,-5.92
2023-03-01T03:07:47.505Z,-5.86
2023-03-01T03:10:17.161Z,-5.78
2023-03-01T03:12:43.627Z,-5.71
2023-03-01T03:15:13.477Z,-5.54
2023-03-01T03:17:43.046Z,-5.52
2023-03-01T03:20:13.056Z,-5.46
2023-03-01T03:22:40.854Z,-5.35
2023-03-01T03:25:11.752Z,-5.35
2023-03-01T03:27:43.854Z,-5.33
2023-03-01T03:30:14.626Z,-5.32
2023-03-01T03:32:42.483Z,-5.23
2023-03-01T03:35:10.946Z,-5.14
2023-03-01T03:38:00.099Z,-5.06
2023-03-01T03:40:31.638Z,-4.97
2023-03-01T03:42:58.349Z,-4.86
2023-03-01T03:45:25.207Z,-4.93
2023-03-01T03:47:51.758Z,-4.93
2023-03-01T03:50:18.971Z,-4.80
2023-03-01T03:52:45.693Z,-4.61
2023-03-01T03:55:13.192Z,-4.57
2023-03-01T03:57:42.971Z,-4.62
2023-03-01T04:00:15.893Z,-4.34
2023-03-01T04:02:43.510Z,-4.39
2023-03-01T04:05:13.321Z,-4.38
2023-03-01T04:07:39.939Z,-4.43
2023-03-01T04:10:10.168Z,-4.29
2023-03-01T04:12:37.026Z,-4.32
2023-03-01T04:15:13.594Z,-4.20
2023-03-01T04:17:41.266Z,-4.08
2023-03-01T04:20:12.928Z,-4.04
2023-03-01T04:22:40.298Z,-4.06
2023-03-01T04:25:07.877Z,-4.07
2023-03-01T04:27:35.521Z,-3.97
2023-03-01T04:30:04.004Z,-3.75
2023-03-01T04:32:30.734Z,-3.80
2023-03-01T04:34:57.193Z,-4.05
2023-03-01T04:37:25.006Z,-3.97
2023-03-01T04:39:51.553Z,-3.94
2023-03-01T04:42:18.774Z,-3.75
2023-03-01T04:44:46.137Z,-3.81
2023-03-01T04:47:13.575Z,-3.71
2023-03-01T04:49:40.018Z,-3.73
2023-03-01T04:52:06.665Z,-3.86
2023-03-01T04:54:34.822Z,-3.83
2023-03-01T04:57:02.894Z,-3.85
2023-03-01T04:59:29.980Z,-3.83
2023-03-01T05:01:57.060Z,-3.82
2023-03-01T05:04:24.515Z,-3.85
2023-03-01T05:06:51.130Z,-3.81
2023-03-01T05:09:17.778Z,-3.74
2023-03-01T05:11:44.535Z,-3.32
2023-03-01T05:14:11.939Z,-3.05
2023-03-01T05:16:38.523Z,-2.91
2023-03-01T05:19:16.052Z,-2.97
2023-03-01T05:22:02.726Z,-3.01
2023-03-01T05:24:31.522Z,-3.03
2023-03-01T05:26:58.019Z,-3.09
2023-03-01T05:29:26.832Z,-3.15
2023-03-01T05:31:58.896Z,-3.16
2023-03-01T05:34:27.246Z,-3.11
2023-03-01T05:36:54.664Z,-3.13
2023-03-01T05:39:23.371Z,-3.18
2023-03-01T05:41:53.884Z,-3.25
2023-03-01T05:44:21.196Z,-3.11
2023-03-01T05:46:47.792Z,-3.15
2023-03-01T05:49:14.954Z,-3.14
2023-03-01T05:51:42.517Z,-3.11
2023-03-01T05:54:10.383Z,-3.11
2023-03-01T05:56:37.605Z,-3.03
2023-03-01T05:59:05.950Z,-3.13
2023-03-01T06:01:33.805Z,-3.11
2023-03-01T06:04:00.255Z,-3.03
2023-03-01T06:06:29.020Z,-3.07
2023-03-01T06:08:55.861Z,-3.04
2023-03-01T06:11:22.671Z,-3.07
2023-03-01T06:13:49.179Z,-3.17
2023-03-01T06:16:15.757Z,-3.08
2023-03-01T06:18:42.352Z,-3.06
2023-03-01T06:21:09.158Z,-3.08
2023-03-01T06:23:36.232Z,-3.06
2023-03-01T06:26:07.471Z,-3.05
2023-03-01T06:28:34.299Z,-3.01
2023-03-01T06:31:01.026Z,-3.15
2023-03-01T06:33:27.453Z,-3.07
2023-03-01T06:35:57.453Z,-3.07
2023-03-01T06:38:25.047Z,-3.13
2023-03-01T06:40:55.745Z,-3.10
2023-03-01T06:43:22.772Z,-3.01
2023-03-01T06:45:49.255Z,-3.03
2023-03-01T06:48:15.714Z,-2.88
2023-03-01T06:50:42.277Z,-2.88
2023-03-01T06:53:08.794Z,-2.94
2023-03-01T06:55:35.250Z,-2.87
2023-03-01T06:58:03.517Z,-3.05
2023-03-01T07:00:30.805Z,-3.19
2023-03-01T07:02:59.898Z,-3.25
2023-03-01T07:05:26.348Z,-3.22
2023-03-01T07:07:54.891Z,-3.23
2023-03-01T07:10:21.498Z,-3.25
2023-03-01T07:12:48.063Z,-3.28
2023-03-01T07:15:15.921Z,-3.30
2023-03-01T07:17:42.413Z,-3.46
2023-03-01T07:20:09.704Z,-3.35
2023-03-01T07:22:36.165Z,-3.24
2023-03-01T07:25:02.725Z,-3.20
2023-03-01T07:27:29.214Z,-3.17
2023-03-01T07:29:55.636Z,-3.08
2023-03-01T07:32:22.156Z,-3.15
2023-03-01T07:34:48.760Z,-3.08
2023-03-01T07:37:15.314Z,-3.09
2023-03-01T07:39:41.761Z,-3.02
2023-03-01T07:42:08.392Z,-3.00
2023-03-01T07:44:35.544Z,-2.95
2023-03-01T07:47:02.022Z,-2.84
2023-03-01T07:49:28.498Z,-2.75
2023-03-01T07:51:55.086Z,-2.67
2023-03-01T07:54:21.838Z,-2.57
2023-03-01T07:56:48.440Z,-2.61
2023-03-01T07:59:15.058Z,-2.65
2023-03-01T08:01:41.582Z,-2.60
2023-03-01T08:04:09.453Z,-2.53
2023-03-01T08:06:37.203Z,-2.40
2023-03-01T08:09:03.854Z,-2.36
2023-03-01T08:11:30.292Z,-2.32
2023-03-01T08:13:58.305Z,-2.15
2023-03-01T08:16:25.115Z,-2.09
2023-03-01T08:18:51.682Z,-2.09
2023-03-01T08:21:19.429Z,-1.88
2023-03-01T08:23:46.095Z,-1.91
2023-03-01T08:26:19.480Z,-1.67
2023-03-01T08:28:47.162Z,-1.78
2023-03-01T08:31:27.156Z,-1.73
2023-03-01T08:33:58.731Z,-1.70
2023-03-01T08:36:27.506Z,-1.81
2023-03-01T08:38:54.564Z,-1.70
2023-03-01T08:41:21.612Z,-1.67
2023-03-01T08:43:48.195Z,-1.61
2023-03-01T08:46:14.819Z,-1.53
2023-03-01T08:48:43.925Z,-1.49
2023-03-01T08:51:16.972Z,-1.37
2023-03-01T08:53:44.164Z,-1.41
2023-03-01T08:56:11.979Z,-1.29
2023-03-01T08:58:40.772Z,-1.27
2023-03-01T09:01:15.868Z,-1.10
2023-03-01T09:03:43.550Z,-1.19
2023-03-01T09:06:11.079Z,-1.20
2023-03-01T09:08:39.423Z,-1.11
2023-03-01T09:11:07.778Z,-1.15
2023-03-01T09:13:35.296Z,-1.02
2023-03-01T09:16:03.910Z,-0.94
2023-03-01T09:18:30.539Z,-0.95
2023-03-01T09:21:09.273Z,-0.84
2023-03-01T09:23:37.642Z,-0.68
2023-03-01T09:26:04.355Z,-0.42
2023-03-01T09:28:30.823Z,-0.32
2023-03-01T09:31:01.862Z,-0.23
2023-03-01T09:33:30.179Z,-0.17
2023-03-01T09:35:58.847Z,0.01
2023-03-01T09:38:26.024Z,-0.02
2023-03-01T09:40:54.438Z,0.03
2023-03-01T09:43:46.605Z,0.21
2023-03-01T09:46:17.604Z,0.41
2023-03-01T09:48:50.004Z,0.44
2023-03-01T09:51:23.372Z,0.57
2023-03-01T09:53:50.167Z,0.64
2023-03-01T09:56:23.341Z,0.71
2023-03-01T09:58:54.708Z,0.68
2023-03-01T10:01:39.464Z,0.61
2023-03-01T10:04:12.377Z,0.70
2023-03-01T10:06:45.462Z,0.64
2023-03-01T10:09:17.101Z,0.76
2023-03-01T10:11:50.868Z,0.89
2023-03-01T10:14:26.160Z,1.01
2023-03-01T10:16:59.743Z,1.04
2023-03-01T10:19:38.667Z,1.13
2023-03-01T10:22:29.521Z,1.08
2023-03-01T10:24:59.520Z,1.27
2023-03-01T10:27:42.681Z,1.14
2023-03-01T10:30:17.143Z,0.93
2023-03-01T10:32:45.246Z,1.03
2023-03-01T10:35:19.557Z,1.23
2023-03-01T10:38:09.026Z,1.37
2023-03-01T10:40:36.990Z,1.53
2023-03-01T10:43:06.770Z,1.68
2023-03-01T10:45:38.897Z,1.64
2023-03-01T10:48:37.658Z,1.58
2023-03-01T10:51:04.035Z,1.44
2023-03-01T10:53:41.480Z,1.66
2023-03-01T10:56:09.417Z,1.67
2023-03-01T10:58:38.863Z,1.71
2023-03-01T11:01:28.129Z,1.71
2023-03-01T11:04:07.052Z,1.80
2023-03-01T11:06:39.002Z,1.74
2023-03-01T11:09:22.236Z,1.79
2023-03-01T11:11:57.091Z,1.95
2023-03-01T11:14:36.638Z,2.05
2023-03-01T11:17:14.729Z,2.14
2023-03-01T11:19:42.529Z,2.12
2023-03-01T11:22:17.507Z,2.17
2023-03-01T11:25:08.968Z,2.36
2023-03-01T11:27:43.149Z,2.47
2023-03-01T11:30:42.522Z,2.44
2023-03-01T11:33:08.942Z,2.38
2023-03-01T11:35:39.034Z,2.64
2023-03-01T11:38:26.371Z,2.79
2023-03-01T11:41:00.943Z,2.76
2023-03-01T11:43:34.699Z,2.94
2023-03-01T11:46:34.138Z,3.06
2023-03-01T11:49:18.645Z,3.03
2023-03-01T11:51:51.120Z,3.16
2023-03-01T11:54:41.003Z,3.16
2023-03-01T11:57:43.464Z,3.16
2023-03-01T12:00:40.624Z,3.27
2023-03-01T12:03:44.375Z,3.55
2023-03-01T12:06:41.459Z,3.56
2023-03-01T12:09:19.920Z,3.43
2023-03-01T12:12:05.135Z,3.62
2023-03-01T12:14:43.656Z,3.76
2023-03-01T12:17:26.069Z,3.67
2023-03-01T12:20:22.873Z,3.79
2023-03-01T12:23:23.444Z,3.81
2023-03-01T12:26:25.607Z,4.02
2023-03-01T12:29:10.589Z,4.02
2023-03-01T12:31:43.232Z,4.07
2023-03-01T12:34:21.071Z,4.09
2023-03-01T12:37:06.388Z,4.21
2023-03-01T12:39:55.500Z,4.32
2023-03-01T12:42:28.169Z,4.38
2023-03-01T12:45:13.071Z,4.40
2023-03-01T12:47:54.856Z,4.33
2023-03-01T12:50:25.154Z,4.45
2023-03-01T12:52:55.998Z,4.57
2023-03-01T12:55:41.403Z,4.65
2023-03-01T12:58:43.691Z,4.80
2023-03-01T13:01:24.989Z,4.91
2023-03-01T13:03:57.279Z,4.95
2023-03-01T13:06:56.898Z,4.98
2023-03-01T13:09:34.693Z,4.89
2023-03-01T13:12:02.923Z,4.94
2023-03-01T13:14:33.796Z,5.13
2023-03-01T13:17:00.321Z,5.01
2023-03-01T13:19:33.324Z,4.97
2023-03-01T13:22:00.292Z,4.95
2023-03-01T13:24:28.489Z,5.16
2023-03-01T13:27:06.852Z,4.90
2023-03-01T13:29:51.888Z,4.96
2023-03-01T13:32:23.473Z,5.13
2023-03-01T13:34:53.674Z,5.23
2023-03-01T13:37:23.835Z,5.11
2023-03-01T13:39:51.101Z,5.05
2023-03-01T13:42:59.369Z,5.29
2023-03-01T13:45:40.417Z,5.13
2023-03-01T13:48:23.407Z,5.29
2023-03-01T13:50:55.532Z,5.25
2023-03-01T13:53:26.275Z,5.10
2023-03-01T13:55:59.905Z,5.24
2023-03-01T13:58:32.322Z,5.30
2023-03-01T14:01:07.854Z,5.44
2023-03-01T14:03:42.583Z,5.53
2023-03-01T14:06:16.210Z,6.17
2023-03-01T14:08:46.374Z,6.78
2023-03-01T14:11:53.266Z,7.11
2023-03-01T14:14:45.408Z,7.44
2023-03-01T14:17:23.787Z,8.05
2023-03-01T14:19:59.694Z,7.12
2023-03-01T14:22:32.971Z,7.28
2023-03-01T14:25:02.102Z,8.05
2023-03-01T14:27:40.320Z,7.59
2023-03-01T14:30:22.284Z,8.14
2023-03-01T14:33:00.833Z,8.75
2023-03-01T14:35:33.914Z,8.02
2023-03-01T14:38:00.509Z,8.07
2023-03-01T14:40:30.435Z,8.16
2023-03-01T14:43:00.605Z,7.92
2023-03-01T14:45:28.989Z,8.68
2023-03-01T14:47:56.987Z,7.90
2023-03-01T14:50:30.354Z,8.46
2023-03-01T14:53:00.442Z,7.61
2023-03-01T14:55:31.619Z,7.72
2023-03-01T14:57:58.837Z,8.35
2023-03-01T15:00:30.880Z,7.13
2023-03-01T15:03:02.743Z,7.34
2023-03-01T15:05:33.781Z,6.49
2023-03-01T15:08:02.898Z,7.05
2023-03-01T15:10:32.942Z,7.45
2023-03-01T15:13:23.003Z,8.03
2023-03-01T15:15:52.155Z,8.33
2023-03-01T15:18:20.657Z,7.73
2023-03-01T15:20:49.393Z,7.57
2023-03-01T15:23:25.286Z,7.75
2023-03-01T15:26:00.108Z,8.09
2023-03-01T15:28:30.356Z,8.28
2023-03-01T15:31:20.926Z,6.87
2023-03-01T15:33:50.302Z,7.54
2023-03-01T15:36:41.598Z,7.91
2023-03-01T15:39:38.231Z,8.32
2023-03-01T15:42:08.260Z,8.36
2023-03-01T15:44:43.423Z,7.75
2023-03-01T15:47:29.027Z,7.39
2023-03-01T15:49:56.923Z,7.78
2023-03-01T15:52:29.938Z,7.61
2023-03-01T15:55:02.395Z,7.68
2023-03-01T15:57:29.066Z,7.67
2023-03-01T15:59:55.589Z,7.28
2023-03-01T16:02:24.955Z,6.95
2023-03-01T16:04:51.615Z,6.37
2023-03-01T16:07:18.593Z,5.96
2023-03-01T16:09:45.153Z,5.92
2023-03-01T16:12:16.664Z,5.68
2023-03-01T16:14:43.720Z,5.41
2023-03-01T16:17:11.139Z,5.34
2023-03-01T16:19:41.961Z,5.23
2023-03-01T16:22:11.108Z,5.16
2023-03-01T16:24:37.505Z,5.14
2023-03-01T16:27:04.678Z,5.14
2023-03-01T16:29:31.241Z,4.85
2023-03-01T16:31:57.715Z,4.45
2023-03-01T16:34:24.439Z,4.47
2023-03-01T16:36:50.874Z,4.38
2023-03-01T16:39:17.671Z,4.35
2023-03-01T16:41:44.422Z,4.35
2023-03-01T16:44:10.919Z,4.34
2023-03-01T16:46:37.487Z,4.36
2023-03-01T16:49:04.208Z,4.21
2023-03-01T16:51:31.962Z,4.15
2023-03-01T16:53:58.671Z,4.15
2023-03-01T16:56:25.250Z,3.93
2023-03-01T16:58:51.683Z,3.95
2023-03-01T17:01:20.948Z,4.00
2023-03-01T17:03:49.513Z,3.87
2023-03-01T17:06:21.133Z,3.80
2023-03-01T17:08:47.581Z,3.78
2023-03-01T17:11:17.297Z,3.80
2023-03-01T17:13:44.621Z,3.65
2023-03-01T17:16:15.100Z,3.56
2023-03-01T17:18:41.613Z,3.46
2023-03-01T17:21:08.501Z,3.57
2023-03-01T17:23:36.607Z,3.41
2023-03-01T17:26:03.709Z,3.28
2023-03-01T17:28:32.694Z,3.25
2023-03-01T17:31:00.814Z,3.15
2023-03-01T17:33:27.446Z,3.07
2023-03-01T17:35:53.965Z,2.97
2023-03-01T17:38:20.425Z,2.87
2023-03-01T17:40:46.895Z,2.80
2023-03-01T17:43:15.483Z,2.75
2023-03-01T17:45:44.580Z,2.67
2023-03-01T17:48:11.152Z,2.52
2023-03-01T17:50:40.326Z,2.47
2023-03-01T17:53:09.945Z,1.85
2023-03-01T17:55:38.243Z,1.15
2023-03-01T17:58:06.031Z,0.44
2023-03-01T18:00:33.034Z,0.23
2023-03-01T18:02:59.599Z,-0.03
2023-03-01T18:05:26.277Z,-0.07
2023-03-01T18:07:53.948Z,-0.03
2023-03-01T18:10:21.077Z,-0.11
2023-03-01T18:12:47.541Z,-0.10
2023-03-01T18:15:14.150Z,-0.29
2023-03-01T18:17:40.746Z,-0.28
2023-03-01T18:20:08.059Z,-0.23
2023-03-01T18:22:34.652Z,-0.27
2023-03-01T18:25:01.118Z,-0.38
2023-03-01T18:27:27.633Z,-0.43
2023-03-01T18:29:54.809Z,-0.49
2023-03-01T18:32:22.084Z,-0.64
2023-03-01T18:34:48.596Z,-0.72
2023-03-01T18:37:15.569Z,-0.80
2023-03-01T18:39:42.272Z,-0.80
2023-03-01T18:42:08.773Z,-0.73
2023-03-01T18:44:36.376Z,-0.76
2023-03-01T18:47:02.803Z,-0.82
2023-03-01T18:49:29.496Z,-0.97
2023-03-01T18:51:56.560Z,-1.16
2023-03-01T18:54:23.075Z,-1.09
2023-03-01T18:56:49.591Z,-1.06
2023-03-01T18:59:16.134Z,-1.04
2023-03-01T19:01:43.227Z,-1.02
2023-03-01T19:04:10.941Z,-1.13
2023-03-01T19:06:37.779Z,-1.15
2023-03-01T19:09:06.550Z,-1.15
2023-03-01T19:11:35.284Z,-1.25
2023-03-01T19:14:02.412Z,-1.36
2023-03-01T19:16:31.313Z,-1.39
2023-03-01T19:19:01.158Z,-1.33
2023-03-01T19:21:30.910Z,-1.44
2023-03-01T19:23:58.449Z,-1.53
2023-03-01T19:26:27.143Z,-1.63
2023-03-01T19:28:54.799Z,-1.59
2023-03-01T19:31:25.630Z,-1.40
2023-03-01T19:33:59.477Z,-1.49
2023-03-01T19:36:35.079Z,-1.65
2023-03-01T19:39:06.355Z,-1.58
2023-03-01T19:41:32.896Z,-1.61
2023-03-01T19:44:02.621Z,-1.72
2023-03-01T19:46:29.362Z,-1.88
2023-03-01T19:48:56.612Z,-1.71
2023-03-01T19:51:23.061Z,-1.62
2023-03-01T19:53:49.597Z,-1.75
2023-03-01T19:56:16.090Z,-1.86
2023-03-01T19:58:43.243Z,-1.98
2023-03-01T20:01:16.096Z,-1.99
2023-03-01T20:03:42.904Z,-2.01
2023-03-01T20:06:15.488Z,-1.96
2023-03-01T20:08:42.570Z,-1.82
2023-03-01T20:11:12.102Z,-2.14
2023-03-01T20:13:38.558Z,-2.23
2023-03-01T20:16:05.887Z,-2.13
2023-03-01T20:18:33.172Z,-2.18
2023-03-01T20:21:00.086Z,-2.15
2023-03-01T20:23:27.005Z,-2.12
2023-03-01T20:26:16.297Z,-2.26
2023-03-01T20:28:43.077Z,-2.37
2023-03-01T20:31:13.460Z,-2.35
2023-03-01T20:33:40.303Z,-2.32
2023-03-01T20:36:08.633Z,-2.38
2023-03-01T20:38:35.942Z,-2.41
2023-03-01T20:41:06.049Z,-2.42
2023-03-01T20:43:33.480Z,-2.63
2023-03-01T20:46:04.702Z,-2.63
2023-03-01T20:48:31.214Z,-2.55
2023-03-01T20:51:01.493Z,-2.58
2023-03-01T20:53:29.188Z,-2.67
2023-03-01T20:55:55.630Z,-2.78
2023-03-01T20:58:22.067Z,-2.81
2023-03-01T21:00:51.859Z,-2.75
2023-03-01T21:03:18.356Z,-2.79
2023-03-01T21:05:44.737Z,-2.77
2023-03-01T21:08:11.251Z,-2.78
2023-03-01T21:10:37.716Z,-2.72
2023-03-01T21:13:04.142Z,-2.65
2023-03-01T21:15:30.536Z,-2.75
2023-03-01T21:17:57.110Z,-2.89
2023-03-01T21:20:24.481Z,-2.79
2023-03-01T21:22:50.927Z,-2.74
2023-03-01T21:25:17.341Z,-2.79
2023-03-01T21:27:43.766Z,-2.83
2023-03-01T21:30:11.039Z,-2.81
2023-03-01T21:32:37.460Z,-2.74
2023-03-01T21:35:04.061Z,-2.81
2023-03-01T21:37:30.547Z,-2.94
2023-03-01T21:39:57.319Z,-2.85
2023-03-01T21:42:24.047Z,-2.78
2023-03-01T21:44:50.458Z,-2.78
2023-03-01T21:47:16.925Z,-2.77
2023-03-01T21:49:43.325Z,-2.75
2023-03-01T21:52:16.603Z,-2.76
2023-03-01T21:54:43.775Z,-2.73
2023-03-01T21:57:10.796Z,-2.95
2023-03-01T21:59:37.376Z,-3.02
2023-03-01T22:02:03.869Z,-3.08
2023-03-01T22:04:30.309Z,-3.20
2023-03-01T22:06:56.807Z,-3.23
2023-03-01T22:09:24.535Z,-3.25
2023-03-01T22:12:02.413Z,-3.28
2023-03-01T22:14:30.827Z,-3.33
2023-03-01T22:16:57.952Z,-3.37
2023-03-01T22:19:24.511Z,-3.41
2023-03-01T22:21:52.744Z,-3.42
2023-03-01T22:24:22.911Z,-3.50
2023-03-01T22:26:51.108Z,-3.49
2023-03-01T22:29:23.933Z,-3.49
2023-03-01T22:31:52.891Z,-3.45
2023-03-01T22:34:20.577Z,-3.48
2023-03-01T22:36:47.940Z,-3.41
2023-03-01T22:39:16.431Z,-3.39
2023-03-01T22:41:45.573Z,-3.29
2023-03-01T22:44:14.690Z,-3.42
2023-03-01T22:46:41.910Z,-3.54
2023-03-01T22:49:09.796Z,-3.47
2023-03-01T22:51:38.081Z,-3.56
2023-03-01T22:54:05.415Z,-3.47
2023-03-01T22:56:34.848Z,-3.35
2023-03-01T22:59:04.735Z,-3.40
2023-03-01T23:01:31.849Z,-3.41
2023-03-01T23:03:58.530Z,-3.42
2023-03-01T23:06:25.248Z,-3.39
2023-03-01T23:08:54.400Z,-3.42
2023-03-01T23:11:22.101Z,-3.37
2023-03-01T23:13:49.209Z,-3.56
2023-03-01T23:16:16.854Z,-3.53
2023-03-01T23:18:44.164Z,-3.54
2023-03-01T23:21:16.520Z,-3.49
2023-03-01T23:23:43.406Z,-3.50
2023-03-01T23:26:10.025Z,-3.51
2023-03-01T23:28:40.332Z,-3.35
2023-03-01T23:31:09.822Z,-3.45
2023-03-01T23:33:39.392Z,-3.54
2023-03-01T23:36:21.352Z,-3.74
2023-03-01T23:38:50.046Z,-3.76
2023-03-01T23:41:20.439Z,-3.74
2023-03-01T23:43:48.522Z,-3.68
2023-03-01T23:46:16.536Z,-3.70
2023-03-01T23:48:43.969Z,-3.62
2023-03-01T23:51:12.241Z,-3.66
2023-03-01T23:53:42.699Z,-3.59
2023-03-01T23:56:12.195Z,-3.46
2023-03-01T23:58:38.840Z,-3.43
